Time;durP1;ratioP1;P1;durP2;ratioP2;P2;SDS_P1;SDS_P2;PMS_P1;PMS_P2;Temp;Humidity;BMP_temperature;BMP_pressure;BME280_temperature;BME280_humidity;BME280_pressure;Samples;Min_cycle;Max_cycle;Signal;HPM_P1;HPM_P2
2022/08/16 00:01:50;;;;;;;30.43;6.53;;;;;;;20.05;100.00;98150.94;2215287;80;21102;-73
2022/08/16 00:04:52;;;;;;;21.73;9.28;;;;;;;19.90;100.00;98145.49;2218767;79;21045;-77
2022/08/16 00:07:53;;;;;;;19.70;7.10;;;;;;;19.77;100.00;98142.98;2248410;78;20992;-69
2022/08/16 00:10:54;;;;;;;22.70;9.18;;;;;;;19.82;100.00;98138.85;2253200;78;21535;-76
2022/08/16 00:13:56;;;;;;;23.27;10.48;;;;;;;19.82;100.00;98134.86;2250169;78;20965;-76
2022/08/16 00:16:57;;;;;;;22.90;10.40;;;;;;;19.86;100.00;98135.36;2252316;78;21550;-76
2022/08/16 00:19:59;;;;;;;26.55;11.63;;;;;;;19.95;100.00;98127.68;2252689;78;21027;-69
2022/08/16 00:23:00;;;;;;;24.23;10.63;;;;;;;19.93;100.00;98128.88;2252161;79;21087;-77
2022/08/16 00:26:02;;;;;;;23.95;10.80;;;;;;;19.93;100.00;98129.69;2254160;78;21069;-77
2022/08/16 00:29:03;;;;;;;25.45;11.22;;;;;;;19.93;100.00;98128.88;2194357;80;21020;-76
2022/08/16 00:32:05;;;;;;;24.45;9.88;;;;;;;19.98;100.00;98126.00;2214026;80;21515;-78
2022/08/16 00:35:06;;;;;;;18.77;6.25;;;;;;;19.93;100.00;98131.02;2251764;78;21104;-79
2022/08/16 00:38:07;;;;;;;57.35;9.08;;;;;;;19.69;100.00;98138.01;2210960;80;21657;-77
2022/08/16 00:41:09;;;;;;;45.40;9.58;;;;;;;19.36;100.00;98135.38;2202482;80;21047;-74
2022/08/16 00:44:11;;;;;;;33.48;8.65;;;;;;;19.13;100.00;98145.84;2212296;80;21044;-78
2022/08/16 00:47:15;;;;;;;;;;;;;;;19.13;100.00;98141.85;2219403;79;21056;-77
2022/08/16 00:50:16;;;;;;;24.43;10.28;;;;;;;19.14;100.00;98148.84;2231423;78;20094;-77
2022/08/16 00:53:17;;;;;;;24.85;12.03;;;;;;;19.36;100.00;98144.68;2197714;80;20987;-77
2022/08/16 00:56:19;;;;;;;26.05;11.65;;;;;;;19.46;100.00;98145.84;2245781;78;21085;-70
2022/08/16 00:59:20;;;;;;;24.85;11.95;;;;;;;19.58;100.00;98150.32;2250120;78;21586;-66
2022/08/16 01:02:21;;;;;;;25.48;11.83;;;;;;;19.65;100.00;98150.02;2249959;78;20993;-71
2022/08/16 01:05:24;;;;;;;25.92;11.25;;;;;;;19.61;100.00;98146.50;2249793;78;21110;-71
2022/08/16 01:08:25;;;;;;;24.02;11.05;;;;;;;19.48;100.00;98151.00;2253580;78;21067;-77
2022/08/16 01:11:27;;;;;;;24.18;11.28;;;;;;;19.31;100.00;98140.86;2242084;79;21554;-75
2022/08/16 01:14:29;;;;;;;25.17;10.78;;;;;;;19.35;100.00;98135.55;2249653;78;21100;-75
2022/08/16 01:17:30;;;;;;;24.12;10.25;;;;;;;19.30;100.00;98140.03;2243080;79;21559;-74
2022/08/16 01:20:32;;;;;;;26.33;10.53;;;;;;;19.31;100.00;98136.39;2242625;78;21499;-76
2022/08/16 01:23:34;;;;;;;31.75;14.10;;;;;;;19.38;100.00;98133.39;2238158;78;21551;-74
2022/08/16 01:26:36;;;;;;;27.13;13.18;;;;;;;19.36;100.00;98134.55;2252724;78;21064;-76
2022/08/16 01:29:37;;;;;;;27.30;13.15;;;;;;;19.21;100.00;98125.91;2234440;79;21635;-77
2022/08/16 01:32:41;;;;;;;26.50;12.00;;;;;;;19.23;100.00;98121.77;2218561;80;21039;-74
2022/08/16 01:35:42;;;;;;;28.50;11.08;;;;;;;19.17;100.00;98128.56;2213370;79;20997;-77
2022/08/16 01:38:44;;;;;;;25.82;11.25;;;;;;;18.85;100.00;98134.66;2231059;79;21579;-77
2022/08/16 01:41:45;;;;;;;26.45;12.20;;;;;;;18.64;100.00;98129.28;2216659;80;21111;-77
2022/08/16 01:44:46;;;;;;;28.45;12.28;;;;;;;18.44;100.00;98130.56;2241402;78;21458;-76
2022/08/16 01:47:48;;;;;;;29.50;13.32;;;;;;;18.56;100.00;98131.94;2229946;79;21057;-76
2022/08/16 01:50:50;;;;;;;26.25;12.37;;;;;;;18.59;100.00;98123.64;2216215;80;20995;-75
2022/08/16 01:53:51;;;;;;;27.75;10.65;;;;;;;18.52;100.00;98126.61;2252878;78;21024;-77
2022/08/16 01:56:53;;;;;;;23.98;9.95;;;;;;;18.55;100.00;98128.94;2233405;79;21104;-76
2022/08/16 01:59:54;;;;;;;25.82;11.48;;;;;;;18.66;100.00;98131.30;2211645;80;20995;-73
2022/08/16 02:02:55;;;;;;;24.45;10.48;;;;;;;18.65;100.00;98132.79;2257578;78;21004;-76
2022/08/16 02:05:57;;;;;;;29.48;11.03;;;;;;;18.81;100.00;98139.97;2234067;79;21000;-75
2022/08/16 02:08:58;;;;;;;23.92;7.33;;;;;;;18.86;100.00;98133.20;2211343;80;20969;-76
2022/08/16 02:12:00;;;;;;;44.05;6.00;;;;;;;18.75;100.00;98125.98;2257831;78;21479;-76
2022/08/16 02:15:03;;;;;;;16.65;5.60;;;;;;;18.81;100.00;98122.70;2209572;80;21004;-77
2022/08/16 02:18:05;;;;;;;18.82;6.70;;;;;;;18.75;100.00;98118.86;2202626;80;20998;-76
2022/08/16 02:21:06;;;;;;;24.75;9.88;;;;;;;18.75;100.00;98115.36;2213778;80;21551;-77
2022/08/16 02:24:08;;;;;;;24.57;11.15;;;;;;;18.73;100.00;98114.20;2213763;80;21005;-76
2022/08/16 02:27:09;;;;;;;26.42;11.73;;;;;;;18.75;100.00;98113.55;2217574;80;21047;-76
2022/08/16 02:30:13;;;;;;;23.15;11.00;;;;;;;18.72;100.00;98109.90;2217847;80;21102;-76
2022/08/16 02:33:14;;;;;;;24.35;10.90;;;;;;;18.80;100.00;98111.73;2206584;78;20969;-76
2022/08/16 02:36:15;;;;;;;24.60;11.78;;;;;;;18.77;100.00;98118.70;2230430;79;21084;-74
2022/08/16 02:39:18;;;;;;;20.45;7.62;;;;;;;18.71;100.00;98116.20;2215248;80;21111;-76
2022/08/16 02:42:19;;;;;;;31.55;8.33;;;;;;;18.86;100.00;98116.38;2216459;80;21571;-75
2022/08/16 02:45:21;;;;;;;25.02;9.05;;;;;;;18.72;100.00;98111.70;2217396;80;21007;-76
2022/08/16 02:48:23;;;;;;;22.98;10.05;;;;;;;18.68;100.00;98109.88;2247919;78;21728;-76
2022/08/16 02:51:25;;;;;;;26.55;9.73;;;;;;;18.68;100.00;98112.54;2237063;79;21092;-76
2022/08/16 02:54:27;;;;;;;20.72;7.28;;;;;;;18.70;100.00;98111.87;2195181;80;21621;-76
2022/08/16 02:57:29;;;;;;;43.38;6.62;;;;;;;18.60;100.00;98111.19;2207840;80;21087;-76
2022/08/16 03:00:31;;;;;;;;;;;;;;;18.36;100.00;98119.42;2213192;80;20976;-76
2022/08/16 03:03:33;;;;;;;19.10;7.20;;;;;;;18.35;100.00;98114.59;2199895;80;20121;-76
2022/08/16 03:06:34;;;;;;;20.92;8.45;;;;;;;18.24;100.00;98114.06;2215456;80;21009;-76
2022/08/16 03:09:36;;;;;;;20.70;8.68;;;;;;;18.25;100.00;98109.09;2218461;80;21078;-76
2022/08/16 03:12:37;;;;;;;21.70;8.18;;;;;;;18.26;100.00;98114.24;2213723;80;21108;-75
2022/08/16 03:15:39;;;;;;;25.35;8.83;;;;;;;18.33;100.00;98118.39;2247014;78;21015;-76
2022/08/16 03:18:40;;;;;;;25.17;10.03;;;;;;;18.35;100.00;98112.45;2250875;78;21575;-76
2022/08/16 03:21:42;;;;;;;21.17;8.53;;;;;;;18.36;100.00;98108.81;2234966;79;21016;-76
2022/08/16 03:24:44;;;;;;;21.17;6.67;;;;;;;18.33;100.00;98113.94;2220493;80;21598;-77
2022/08/16 03:27:45;;;;;;;18.35;6.00;;;;;;;18.10;100.00;98120.31;2243386;78;20954;-77
2022/08/16 03:30:47;;;;;;;25.40;7.40;;;;;;;17.76;100.00;98118.44;2216752;80;21591;-70
2022/08/16 03:33:48;;;;;;;19.27;6.30;;;;;;;17.68;100.00;98124.19;2216534;80;21034;-69
2022/08/16 03:36:50;;;;;;;20.90;7.95;;;;;;;17.61;100.00;98125.29;2248379;78;21558;-70
2022/08/16 03:39:51;;;;;;;25.90;8.63;;;;;;;17.65;100.00;98134.09;2205095;79;20996;-76
2022/08/16 03:42:53;;;;;;;22.32;8.68;;;;;;;17.67;100.00;98131.31;2212274;79;21000;-75
2022/08/16 03:45:56;;;;;;;23.85;8.95;;;;;;;17.74;100.00;98124.88;2234059;79;21088;-76
2022/08/16 03:48:58;;;;;;;20.48;8.13;;;;;;;17.83;100.00;98129.26;2217204;80;21562;-76
2022/08/16 03:51:59;;;;;;;25.20;8.98;;;;;;;17.72;100.00;98135.64;2212637;80;21039;-76
2022/08/16 03:55:01;;;;;;;25.52;9.48;;;;;;;17.73;100.00;98130.69;2245241;79;21484;-76
2022/08/16 03:58:02;;;;;;;24.57;10.15;;;;;;;17.76;100.00;98131.70;2247649;78;21089;-76
2022/08/16 04:01:03;;;;;;;28.75;10.75;;;;;;;17.79;100.00;98135.36;2218030;79;20992;-77
2022/08/16 04:04:06;;;;;;;27.95;10.25;;;;;;;17.70;100.00;98132.33;2248286;78;20993;-77
2022/08/16 04:07:07;;;;;;;27.02;10.75;;;;;;;17.82;100.00;98132.89;2209893;79;21097;-76
2022/08/16 04:10:09;;;;;;;29.37;10.50;;;;;;;17.89;100.00;98131.78;2232523;79;21123;-72
2022/08/16 04:13:10;;;;;;;29.70;10.20;;;;;;;17.95;100.00;98124.54;2216970;80;21134;-73
2022/08/16 04:16:12;;;;;;;30.68;11.03;;;;;;;18.02;100.00;98129.55;2247233;78;21918;-77
2022/08/16 04:19:13;;;;;;;23.10;8.18;;;;;;;18.14;100.00;98128.77;2235285;79;21085;-76
2022/08/16 04:22:15;;;;;;;26.20;9.28;;;;;;;18.02;100.00;98136.19;2204233;80;21574;-76
2022/08/16 04:25:17;;;;;;;22.82;7.35;;;;;;;17.95;100.00;98136.48;2239427;78;21032;-76
2022/08/16 04:28:18;;;;;;;23.85;5.85;;;;;;;17.97;100.00;98130.50;2217687;80;21547;-75
2022/08/16 04:31:20;;;;;;;23.35;8.10;;;;;;;17.95;100.00;98131.17;2248964;79;21099;-76
2022/08/16 04:34:21;;;;;;;23.18;7.58;;;;;;;18.00;100.00;98132.84;2208104;80;21482;-74
2022/08/16 04:37:23;;;;;;;24.30;9.48;;;;;;;18.12;100.00;98138.22;2203843;80;20996;-70
2022/08/16 04:40:24;;;;;;;31.17;9.83;;;;;;;18.12;100.00;98138.22;2205295;80;21006;-73
2022/08/16 04:43:26;;;;;;;26.85;10.32;;;;;;;18.17;100.00;98147.88;2210562;80;21043;-75
2022/08/16 04:46:27;;;;;;;27.60;9.93;;;;;;;18.20;100.00;98144.05;2217942;80;21008;-76
2022/08/16 04:49:29;;;;;;;27.10;9.38;;;;;;;18.07;100.00;98139.18;2213144;80;21459;-75
2022/08/16 04:52:31;;;;;;;31.10;10.72;;;;;;;17.91;100.00;98133.30;2253379;79;21087;-75
2022/08/16 04:55:33;;;;;;;33.48;10.25;;;;;;;17.75;100.00;98127.88;2209380;80;21043;-75
2022/08/16 04:58:34;;;;;;;38.33;11.75;;;;;;;17.85;100.00;98124.62;2249582;78;21041;-70
2022/08/16 05:01:36;;;;;;;29.52;11.08;;;;;;;17.99;100.00;98128.55;2254861;78;21554;-73
2022/08/16 05:04:37;;;;;;;33.75;12.80;;;;;;;18.35;100.00;98137.16;2245562;79;20996;-75
2022/08/16 05:07:38;;;;;;;41.70;14.25;;;;;;;18.33;100.00;98150.25;2253794;79;21529;-71
2022/08/16 05:10:40;;;;;;;44.27;14.55;;;;;;;18.62;100.00;98168.94;2248071;78;21036;-74
2022/08/16 05:13:41;;;;;;;38.48;15.55;;;;;;;18.77;100.00;98165.19;2232147;79;21065;-75
2022/08/16 05:16:43;;;;;;;30.27;14.38;;;;;;;18.92;100.00;98160.95;2213831;80;21003;-76
2022/08/16 05:19:44;;;;;;;34.38;16.15;;;;;;;19.12;100.00;98162.80;2219537;79;21044;-73
2022/08/16 05:22:46;;;;;;;33.75;16.32;;;;;;;19.29;100.00;98172.92;2199793;80;21109;-75
2022/08/16 05:25:48;;;;;;;33.33;15.90;;;;;;;19.43;100.00;98162.14;2212405;79;21051;-76
2022/08/16 05:28:49;;;;;;;37.23;16.82;;;;;;;19.48;100.00;98173.60;2251004;78;21119;-75
2022/08/16 05:31:51;;;;;;;39.15;18.90;;;;;;;19.52;100.00;98169.62;2251402;78;21096;-75
2022/08/16 05:34:52;;;;;;;36.77;16.73;;;;;;;19.53;100.00;98176.09;2250938;78;21011;-75
2022/08/16 05:37:54;;;;;;;34.70;17.27;;;;;;;19.66;100.00;98176.10;2250297;78;21060;-75
2022/08/16 05:40:55;;;;;;;38.88;17.05;;;;;;;19.89;100.00;98168.28;2249682;78;21079;-76
2022/08/16 05:43:59;;;;;;;41.65;16.85;;;;;;;20.13;100.00;98178.53;2252094;78;21653;-75
2022/08/16 05:47:00;;;;;;;33.75;17.40;;;;;;;20.34;100.00;98179.31;2255366;78;21669;-76
2022/08/16 05:50:03;;;;;;;34.85;17.35;;;;;;;20.08;100.00;98183.05;2245241;79;21021;-73
2022/08/16 05:53:04;;;;;;;34.00;16.05;;;;;;;19.97;100.00;98187.39;2243920;78;21068;-76
2022/08/16 05:56:06;;;;;;;31.57;15.93;;;;;;;20.01;100.00;98187.38;2248780;78;21638;-76
2022/08/16 05:59:07;;;;;;;29.65;15.38;;;;;;;20.04;100.00;98181.23;2244394;78;21048;-77
2022/08/16 06:02:09;;;;;;;31.50;16.57;;;;;;;20.26;100.00;98180.18;2251239;78;21715;-76
2022/08/16 06:05:11;;;;;;;32.00;15.70;;;;;;;20.67;100.00;98180.54;2248838;79;21067;-76
2022/08/16 06:08:12;;;;;;;34.63;15.00;;;;;;;20.91;100.00;98188.91;2249129;78;21035;-76
2022/08/16 06:11:14;;;;;;;31.55;14.20;;;;;;;20.92;100.00;98183.92;2244820;78;21056;-75
2022/08/16 06:14:15;;;;;;;30.02;15.75;;;;;;;20.79;100.00;98192.97;2250819;78;21072;-77
2022/08/16 06:17:17;;;;;;;26.37;14.63;;;;;;;20.85;100.00;98198.95;2250461;78;21028;-76
2022/08/16 06:20:19;;;;;;;30.70;15.00;;;;;;;20.99;100.00;98207.53;2256131;78;21076;-72
2022/08/16 06:23:22;;;;;;;34.50;15.75;;;;;;;21.18;100.00;98210.76;2256226;78;21038;-75
2022/08/16 06:26:24;;;;;;;35.13;15.15;;;;;;;21.49;100.00;98212.02;2254024;78;21002;-75
2022/08/16 06:29:25;;;;;;;31.07;16.02;;;;;;;21.69;100.00;98216.39;2252764;78;21518;-66
2022/08/16 06:32:26;;;;;;;33.35;16.40;;;;;;;21.78;100.00;98218.52;2250891;78;20997;-71
2022/08/16 06:35:30;;;;;;;39.40;22.80;;;;;;;21.99;100.00;98215.13;2245381;78;21010;-71
2022/08/16 06:38:31;;;;;;;35.98;19.27;;;;;;;22.34;100.00;98219.98;2238580;79;21026;-75
2022/08/16 06:41:33;;;;;;;35.50;19.05;;;;;;;22.83;100.00;98222.91;2250881;78;20992;-69
2022/08/16 06:44:34;;;;;;;29.52;17.02;;;;;;;23.37;100.00;98224.85;2249595;79;21080;-75
2022/08/16 06:47:36;;;;;;;34.90;17.95;;;;;;;23.74;100.00;98222.12;2243600;78;21036;-73
2022/08/16 06:50:38;;;;;;;;;;;;;;;24.18;100.00;98224.55;2253300;78;21005;-75
2022/08/16 06:53:40;;;;;;;35.60;17.55;;;;;;;24.15;100.00;98230.30;2251016;78;20177;-76
2022/08/16 06:56:41;;;;;;;32.33;17.12;;;;;;;24.20;100.00;98226.50;2252030;78;20988;-74
2022/08/16 06:59:43;;;;;;;34.35;17.12;;;;;;;24.31;100.00;98231.84;2246451;78;21598;-71
2022/08/16 07:02:45;;;;;;;;;;;;;;;24.40;100.00;98231.17;2249399;79;21093;-75
2022/08/16 07:05:47;;;;;;;30.20;15.68;;;;;;;24.31;100.00;98235.86;2252876;78;20101;-76
2022/08/16 07:08:49;;;;;;;;;;;;;;;24.32;100.00;98225.95;2246348;78;21159;-75
2022/08/16 07:11:50;;;;;;;34.40;17.10;;;;;;;24.44;100.00;98223.55;2253048;78;20113;-75
2022/08/16 07:14:52;;;;;;;32.65;17.00;;;;;;;24.44;100.00;98226.23;2249031;78;21013;-75
2022/08/16 07:17:53;;;;;;;30.48;16.35;;;;;;;24.24;100.00;98227.44;2253594;78;20988;-69
2022/08/16 07:20:57;;;;;;;30.68;16.23;;;;;;;24.32;100.00;98229.48;2238168;78;21009;-75
2022/08/16 07:23:58;;;;;;;33.20;17.30;;;;;;;24.60;100.00;98225.13;2223087;78;20969;-76
2022/08/16 07:27:00;;;;;;;35.13;16.57;;;;;;;24.82;100.00;98223.98;2245439;78;20966;-75
2022/08/16 07:30:01;;;;;;;31.27;15.70;;;;;;;24.97;100.00;98227.88;2249558;78;21001;-73
2022/08/16 07:33:04;;;;;;;30.55;14.75;;;;;;;25.25;100.00;98226.91;2252458;78;21052;-76
2022/08/16 07:36:06;;;;;;;33.67;15.70;;;;;;;25.35;100.00;98231.92;2235229;79;20974;-76
2022/08/16 07:39:07;;;;;;;31.02;15.30;;;;;;;25.28;100.00;98228.36;2215451;80;21027;-76
2022/08/16 07:42:09;;;;;;;29.42;15.53;;;;;;;25.22;100.00;98223.30;2220258;80;21629;-76
2022/08/16 07:45:10;;;;;;;29.90;16.50;;;;;;;24.97;100.00;98228.36;2230599;78;21061;-76
2022/08/16 07:48:12;;;;;;;30.45;16.70;;;;;;;24.90;100.00;98224.33;2246355;78;21656;-77
2022/08/16 07:51:13;;;;;;;30.27;16.23;;;;;;;24.92;100.00;98227.63;2239387;78;21116;-77
2022/08/16 07:54:15;;;;;;;33.02;18.15;;;;;;;25.08;100.00;98231.81;2251432;78;21052;-77
2022/08/16 07:57:16;;;;;;;37.15;19.12;;;;;;;25.35;100.00;98229.23;2252452;78;21091;-73
2022/08/16 08:00:17;;;;;;;31.97;17.95;;;;;;;25.61;100.00;98224.94;2254212;78;21165;-77
2022/08/16 08:03:19;;;;;;;32.75;18.73;;;;;;;25.81;100.00;98231.14;2242029;78;21026;-76
2022/08/16 08:06:21;;;;;;;32.17;18.67;;;;;;;25.97;100.00;98220.49;2215455;80;21004;-76
2022/08/16 08:09:23;;;;;;;31.57;17.25;;;;;;;26.64;100.00;98224.44;2204381;80;21043;-76
2022/08/16 08:12:24;;;;;;;31.25;17.37;;;;;;;27.17;100.00;98212.64;2208521;80;21048;-77
2022/08/16 08:15:26;;;;;;;29.10;15.03;;;;;;;27.73;100.00;98216.44;2208756;80;21480;-76
2022/08/16 08:18:28;;;;;;;30.32;14.83;;;;;;;28.25;100.00;98218.90;2246851;78;21044;-76
2022/08/16 08:21:30;;;;;;;27.52;15.32;;;;;;;28.37;100.00;98211.42;2212366;80;21088;-76
2022/08/16 08:24:33;;;;;;;30.10;15.23;;;;;;;28.78;100.00;98206.72;2241734;78;21578;-76
2022/08/16 08:27:35;;;;;;;27.10;14.03;;;;;;;28.93;100.00;98204.96;2201132;80;21033;-76
2022/08/16 08:30:37;;;;;;;30.75;14.50;;;;;;;29.01;100.00;98207.36;2253689;78;21084;-75
2022/08/16 08:33:38;;;;;;;30.15;14.65;;;;;;;29.22;100.00;98211.94;2209356;80;21004;-74
2022/08/16 08:36:40;;;;;;;28.42;14.73;;;;;;;29.52;100.00;98207.08;2245425;78;21554;-72
2022/08/16 08:39:41;;;;;;;28.32;14.50;;;;;;;29.87;100.00;98206.36;2202217;79;21064;-74
2022/08/16 08:42:44;;;;;;;30.25;13.90;;;;;;;30.58;100.00;98206.32;2248065;79;21486;-75
2022/08/16 08:45:46;;;;;;;27.32;14.15;;;;;;;30.91;100.00;98210.23;2243259;78;21073;-67
2022/08/16 08:48:49;;;;;;;29.63;13.58;;;;;;;30.86;100.00;98217.73;2253643;78;21063;-65
2022/08/16 08:51:51;;;;;;;26.97;12.85;;;;;;;31.09;100.00;98220.91;2245145;78;21088;-68
2022/08/16 08:54:52;;;;;;;25.52;12.80;;;;;;;31.16;100.00;98223.48;2241983;78;21681;-76
2022/08/16 08:57:54;;;;;;;;;;;;;;;30.92;100.00;98217.30;2256261;78;21153;-77
2022/08/16 09:00:56;;;;;;;28.07;13.05;;;;;;;30.91;100.00;98223.23;2251338;78;20188;-77
2022/08/16 09:03:58;;;;;;;24.18;13.22;;;;;;;30.77;100.00;98225.11;2252075;78;21083;-72
2022/08/16 09:07:00;;;;;;;26.73;13.68;;;;;;;30.89;100.00;98228.07;2250145;78;21562;-76
2022/08/16 09:10:02;;;;;;;25.08;13.45;;;;;;;31.33;100.00;98225.39;2246731;79;21049;-75
2022/08/16 09:13:04;;;;;;;25.57;12.70;;;;;;;31.70;95.66;98226.34;2248109;78;21535;-76
2022/08/16 09:16:06;;;;;;;24.70;13.35;;;;;;;31.63;93.83;98221.61;2251581;78;20985;-76
2022/08/16 09:19:09;;;;;;;25.35;12.82;;;;;;;31.58;95.35;98214.22;2249538;79;21583;-71
2022/08/16 09:22:10;;;;;;;27.50;12.23;;;;;;;31.87;94.85;98212.79;2245438;78;21083;-77
2022/08/16 09:25:12;;;;;;;25.35;14.63;;;;;;;31.60;87.84;98222.38;2250866;79;21000;-78
2022/08/16 09:28:14;;;;;;;27.42;11.40;;;;;;;31.31;87.45;98224.28;2248900;78;21166;-77
2022/08/16 09:31:15;;;;;;;25.92;12.23;;;;;;;31.27;83.88;98228.00;2244931;78;20981;-77
2022/08/16 09:34:17;;;;;;;25.00;12.90;;;;;;;31.20;85.24;98223.80;2239185;79;21084;-77
2022/08/16 09:37:18;;;;;;;28.47;14.05;;;;;;;31.41;87.00;98223.11;2209415;80;20995;-77
2022/08/16 09:40:20;;;;;;;28.17;14.80;;;;;;;31.36;81.54;98228.97;2217937;80;21549;-76
2022/08/16 09:43:22;;;;;;;26.12;14.60;;;;;;;31.02;84.48;98232.92;2249345;79;21044;-78
2022/08/16 09:46:24;;;;;;;25.97;11.63;;;;;;;31.05;86.75;98226.52;2250482;78;21056;-77
2022/08/16 09:49:26;;;;;;;28.15;13.38;;;;;;;31.19;80.77;98224.34;2249240;78;21071;-77
2022/08/16 09:52:27;;;;;;;25.17;12.40;;;;;;;31.12;80.76;98226.38;2247067;78;21041;-77
2022/08/16 09:55:29;;;;;;;23.80;11.10;;;;;;;31.09;78.92;98226.33;2247131;78;20983;-77
2022/08/16 09:58:30;;;;;;;22.85;10.40;;;;;;;31.18;78.19;98226.76;2246115;79;21555;-78
2022/08/16 10:01:32;;;;;;;20.80;9.20;;;;;;;31.24;78.12;98228.48;2257003;78;21106;-77
2022/08/16 10:04:33;;;;;;;21.45;7.75;;;;;;;31.27;77.28;98228.54;2253702;78;21587;-77
2022/08/16 10:07:35;;;;;;;24.35;8.35;;;;;;;31.29;72.77;98226.94;2206041;80;21007;-73
2022/08/16 10:10:40;;;;;;;21.65;7.95;;;;;;;31.23;70.98;98230.92;2195159;80;21019;-77
2022/08/16 10:13:42;;;;;;;20.97;8.88;;;;;;;31.35;73.77;98232.22;2181644;79;20990;-77
2022/08/16 10:16:44;;;;;;;22.10;8.80;;;;;;;31.63;72.53;98230.55;2221820;78;21566;-77
2022/08/16 10:19:46;;;;;;;22.55;8.05;;;;;;;31.82;71.08;98233.03;2241472;79;21056;-78
2022/08/16 10:22:48;;;;;;;20.27;8.60;;;;;;;31.92;68.70;98226.41;2247837;79;21061;-77
2022/08/16 10:25:49;;;;;;;20.75;8.73;;;;;;;31.86;72.57;98221.98;2252151;78;21063;-75
2022/08/16 10:28:50;;;;;;;22.17;9.13;;;;;;;32.04;72.23;98230.38;2247535;79;21556;-77
2022/08/16 10:31:52;;;;;;;21.02;10.18;;;;;;;32.25;70.01;98229.67;2250295;78;21039;-76
2022/08/16 10:34:53;;;;;;;23.62;10.30;;;;;;;32.24;73.69;98233.45;2246316;78;21534;-77
2022/08/16 10:37:55;;;;;;;23.10;10.90;;;;;;;32.34;73.50;98239.56;2253001;78;21040;-76
2022/08/16 10:40:57;;;;;;;21.75;10.70;;;;;;;32.37;75.37;98234.98;2251292;78;20997;-73
2022/08/16 10:43:58;;;;;;;20.25;10.08;;;;;;;32.68;76.21;98236.77;2250821;78;21070;-67
2022/08/16 10:47:00;;;;;;;24.80;10.25;;;;;;;32.86;73.90;98234.80;2238297;79;21038;-67
2022/08/16 10:50:01;;;;;;;25.57;9.58;;;;;;;32.97;72.70;98234.69;2204220;80;21518;-76
2022/08/16 10:53:05;;;;;;;22.37;9.53;;;;;;;32.91;70.42;98235.69;2251273;78;21015;-75
2022/08/16 10:56:07;;;;;;;21.45;9.68;;;;;;;33.09;69.87;98242.69;2224204;79;21024;-78
2022/08/16 10:59:09;;;;;;;23.55;9.33;;;;;;;33.32;67.72;98240.80;2246751;78;21061;-78
2022/08/16 11:02:11;;;;;;;22.15;9.33;;;;;;;33.48;67.78;98235.77;2207366;80;21596;-75
2022/08/16 11:05:12;;;;;;;24.15;9.28;;;;;;;33.53;64.49;98238.27;2202798;80;21012;-70
2022/08/16 11:08:14;;;;;;;21.23;8.73;;;;;;;33.58;65.85;98230.98;2212085;80;21124;-72
2022/08/16 11:11:15;;;;;;;21.45;8.70;;;;;;;33.22;62.39;98232.55;2214585;79;20988;-77
2022/08/16 11:14:17;;;;;;;22.07;8.65;;;;;;;33.32;65.77;98232.64;2215255;80;20997;-78
2022/08/16 11:17:19;;;;;;;19.30;8.50;;;;;;;33.64;65.13;98234.02;2245692;78;20989;-77
2022/08/16 11:20:20;;;;;;;19.35;7.40;;;;;;;33.53;63.03;98231.47;2246278;78;21000;-73
2022/08/16 11:23:22;;;;;;;23.55;8.25;;;;;;;33.44;62.54;98225.69;2216220;80;21506;-77
2022/08/16 11:26:23;;;;;;;18.60;7.10;;;;;;;33.25;62.09;98228.77;2249745;78;21078;-79
2022/08/16 11:29:25;;;;;;;21.97;9.08;;;;;;;33.43;60.10;98220.80;2199647;80;21495;-74
2022/08/16 11:32:27;;;;;;;22.90;8.40;;;;;;;33.57;63.02;98220.36;2216966;80;20973;-78
2022/08/16 11:35:28;;;;;;;25.20;8.78;;;;;;;33.60;59.04;98225.28;2254779;78;21468;-71
2022/08/16 11:38:31;;;;;;;23.10;7.72;;;;;;;33.49;61.69;98220.30;2234224;79;21131;-74
2022/08/16 11:41:34;;;;;;;20.95;8.38;;;;;;;33.55;61.13;98217.91;2238919;79;21570;-78
2022/08/16 11:44:35;;;;;;;19.82;7.90;;;;;;;33.70;61.78;98213.12;2183923;80;21358;-77
2022/08/16 11:47:37;;;;;;;23.02;7.70;;;;;;;33.96;62.30;98210.08;2203412;80;21017;-78
2022/08/16 11:50:38;;;;;;;21.20;7.97;;;;;;;34.13;57.91;98209.12;2213914;80;21041;-77
2022/08/16 11:53:40;;;;;;;22.98;9.05;;;;;;;33.87;59.96;98210.86;2210503;80;21037;-77
2022/08/16 11:56:42;;;;;;;18.10;7.90;;;;;;;33.23;59.77;98213.27;2206696;80;21455;-78
2022/08/16 11:59:43;;;;;;;19.80;8.50;;;;;;;32.59;60.32;98207.05;2245131;78;20980;-77
2022/08/16 12:02:45;;;;;;;22.55;7.85;;;;;;;32.75;62.45;98214.32;2217816;79;21531;-78
2022/08/16 12:05:47;;;;;;;20.80;7.87;;;;;;;32.57;58.46;98205.94;2215043;80;21127;-78
2022/08/16 12:08:48;;;;;;;18.52;7.08;;;;;;;32.99;60.24;98209.99;2248402;78;21126;-78
2022/08/16 12:11:50;;;;;;;18.02;6.72;;;;;;;32.97;58.33;98198.03;2207111;80;20993;-78
2022/08/16 12:14:51;;;;;;;21.80;6.75;;;;;;;33.05;55.63;98190.50;2211838;80;21004;-76
2022/08/16 12:17:53;;;;;;;22.20;6.33;;;;;;;33.12;53.14;98186.49;2247901;78;21032;-78
2022/08/16 12:20:55;;;;;;;21.35;8.08;;;;;;;33.05;50.65;98187.23;2213166;80;21021;-75
2022/08/16 12:23:56;;;;;;;20.55;7.12;;;;;;;33.23;51.44;98186.62;2215437;80;21043;-78
2022/08/16 12:26:58;;;;;;;21.00;6.60;;;;;;;33.11;50.12;98178.60;2204134;80;21091;-78
2022/08/16 12:30:00;;;;;;;21.95;6.97;;;;;;;33.24;51.46;98181.47;2214644;80;20992;-77
2022/08/16 12:33:01;;;;;;;20.57;7.20;;;;;;;33.42;50.68;98175.67;2241995;79;21108;-78
2022/08/16 12:36:03;;;;;;;21.42;7.22;;;;;;;33.47;50.64;98170.26;2206217;80;21028;-78
2022/08/16 12:39:05;;;;;;;21.23;7.37;;;;;;;33.59;52.75;98164.67;2200127;80;20989;-78
2022/08/16 12:42:08;;;;;;;20.60;7.00;;;;;;;33.75;51.14;98172.42;2208685;80;20997;-78
2022/08/16 12:45:10;;;;;;;21.15;7.47;;;;;;;33.75;49.69;98168.88;2202229;80;21578;-77
2022/08/16 12:51:14;;;;;;;17.65;6.97;;;;;;;32.83;50.72;98179.14;2170012;80;21013;-78
2022/08/16 12:54:16;;;;;;;22.98;7.53;;;;;;;32.69;51.75;98171.10;2198579;80;21542;-76
2022/08/16 12:57:17;;;;;;;20.92;6.95;;;;;;;33.14;51.61;98165.34;2244299;79;20961;-77
2022/08/16 13:00:19;;;;;;;17.17;6.78;;;;;;;33.39;51.03;98163.96;2202703;80;21078;-71
2022/08/16 13:03:20;;;;;;;19.48;6.50;;;;;;;33.95;48.46;98156.80;2200204;80;21114;-77
2022/08/16 13:06:22;;;;;;;20.27;7.17;;;;;;;34.26;50.95;98165.66;2200594;80;21001;-73
2022/08/16 13:09:23;;;;;;;22.70;7.20;;;;;;;33.73;49.48;98160.14;2216021;79;21008;-70
2022/08/16 13:12:27;;;;;;;21.45;7.47;;;;;;;33.08;51.21;98178.57;2214003;80;21039;-77
2022/08/16 13:15:28;;;;;;;23.32;8.20;;;;;;;32.53;52.64;98177.66;2246072;78;21051;-64
2022/08/16 13:18:30;;;;;;;22.60;8.50;;;;;;;31.94;55.57;98183.07;2248740;78;21443;-73
2022/08/16 13:21:32;;;;;;;25.37;9.60;;;;;;;31.40;59.28;98170.52;2204557;80;21065;-78
2022/08/16 13:24:33;;;;;;;32.33;10.35;;;;;;;30.91;62.75;98169.63;2217262;80;21523;-77
2022/08/16 13:27:34;;;;;;;29.48;9.95;;;;;;;30.57;63.54;98173.55;2209326;80;21108;-76
2022/08/16 13:30:36;;;;;;;23.73;10.28;;;;;;;30.44;64.42;98169.77;2214968;79;20991;-74
2022/08/16 13:33:37;;;;;;;27.80;10.20;;;;;;;30.47;65.00;98173.34;2208320;80;21503;-74
2022/08/16 13:36:39;;;;;;;26.12;10.30;;;;;;;30.48;65.30;98171.75;2205603;80;20950;-78
2022/08/16 13:39:40;;;;;;;23.95;9.68;;;;;;;30.37;66.62;98171.22;2200684;80;21667;-77
2022/08/16 13:42:42;;;;;;;28.20;10.25;;;;;;;30.40;67.64;98173.44;2207286;80;20993;-77
2022/08/16 13:45:44;;;;;;;28.23;10.53;;;;;;;30.47;67.80;98174.19;2206109;80;21543;-78
2022/08/16 13:48:46;;;;;;;22.93;9.35;;;;;;;30.53;68.24;98174.58;2203914;80;21000;-78
2022/08/16 13:51:48;;;;;;;24.00;9.58;;;;;;;30.57;67.49;98174.39;2209884;80;21503;-78
2022/08/16 13:54:49;;;;;;;26.37;10.32;;;;;;;30.64;67.13;98174.78;2206476;80;21099;-78
2022/08/16 13:57:51;;;;;;;22.17;9.45;;;;;;;30.60;68.56;98175.78;2208241;79;21567;-78